Time;durP1;ratioP1;P1;durP2;ratioP2;P2;SDS_P1;SDS_P2;PMS_P1;PMS_P2;Temp;Humidity;BMP_temperature;BMP_pressure;BME280_temperature;BME280_humidity;BME280_pressure;Samples;Min_cycle;Max_cycle;Signal;HPM_P1;HPM_P2
2024/04/10 00:00:28;;;;;;;5.10;1.90;;;;;;;16.33;49.70;96387.81;108579;1276;25468;-71
2024/04/10 00:03:22;;;;;;;7.30;2.40;;;;;;;16.30;49.77;96389.42;108520;1276;26613;-71
2024/04/10 00:06:03;;;;;;;3.70;2.20;;;;;;;16.30;49.85;96386.29;108434;1276;22532;-71
2024/04/10 00:08:36;;;;;;;4.70;1.80;;;;;;;16.31;49.90;96391.66;108547;1274;23436;-71
2024/04/10 00:11:09;;;;;;;4.90;2.00;;;;;;;16.31;49.93;96389.14;108506;1258;24375;-71
2024/04/10 00:13:42;;;;;;;4.70;2.20;;;;;;;16.31;49.89;96392.05;108545;1276;22573;-71
2024/04/10 00:16:12;;;;;;;5.20;2.50;;;;;;;16.31;49.95;96389.46;108532;1268;22528;-71
2024/04/10 00:18:44;;;;;;;6.30;2.40;;;;;;;16.29;50.02;96388.48;108528;1276;26293;-71
2024/04/10 00:21:14;;;;;;;6.70;2.20;;;;;;;16.29;50.10;96385.85;108517;1275;22539;-71
2024/04/10 00:23:45;;;;;;;4.10;2.00;;;;;;;16.28;50.12;96384.69;108504;1275;22566;-72
2024/04/10 00:26:18;;;;;;;4.30;1.80;;;;;;;16.29;50.05;96380.44;108532;1275;22571;-71
2024/04/10 00:28:49;;;;;;;6.40;1.90;;;;;;;16.29;50.18;96383.11;108534;1275;24210;-71
2024/04/10 00:31:19;;;;;;;6.80;2.10;;;;;;;16.29;50.20;96382.73;108486;1272;22534;-72
2024/04/10 00:33:50;;;;;;;4.50;1.90;;;;;;;16.31;50.20;96380.05;108499;1275;22568;-71
2024/04/10 00:36:21;;;;;;;3.40;1.80;;;;;;;16.30;50.18;96380.78;108499;1276;25260;-71
2024/04/10 00:38:51;;;;;;;5.20;1.90;;;;;;;16.29;50.19;96383.43;108501;1275;22547;-71
2024/04/10 00:41:22;;;;;;;4.70;1.90;;;;;;;16.30;50.27;96383.90;108517;1275;22717;-71
2024/04/10 00:43:52;;;;;;;3.00;2.30;;;;;;;16.29;50.23;96387.42;108482;1268;24215;-71
2024/04/10 00:46:24;;;;;;;4.10;2.40;;;;;;;16.29;50.30;96387.33;108536;1275;22525;-71
2024/04/10 00:48:57;;;;;;;4.60;1.90;;;;;;;16.26;50.36;96386.37;108496;1273;22536;-71
2024/04/10 00:51:28;;;;;;;3.00;1.70;;;;;;;16.25;50.46;96392.20;108540;1275;24194;-71
2024/04/10 00:54:02;;;;;;;5.40;2.20;;;;;;;16.25;50.54;96391.50;108487;1276;24226;-71
2024/04/10 00:56:33;;;;;;;4.50;1.80;;;;;;;16.23;50.40;96390.83;108542;1275;26003;-71
2024/04/10 00:59:06;;;;;;;4.70;2.40;;;;;;;16.21;50.46;96392.59;108502;1254;22586;-71
2024/04/10 01:01:37;;;;;;;6.10;2.00;;;;;;;16.21;50.54;96391.81;108510;1276;22552;-71
2024/04/10 01:04:08;;;;;;;3.50;1.70;;;;;;;16.21;50.60;96394.64;108486;1273;22541;-71
2024/04/10 01:06:38;;;;;;;7.30;2.30;;;;;;;16.24;50.61;96399.41;108499;1268;22539;-71
2024/04/10 01:09:09;;;;;;;3.80;2.10;;;;;;;16.28;50.50;96396.59;108493;1272;23011;-72
2024/04/10 01:11:40;;;;;;;4.10;2.10;;;;;;;16.27;50.57;96396.46;108499;1275;22997;-71
2024/04/10 01:14:10;;;;;;;4.30;1.90;;;;;;;16.24;50.56;96395.75;108507;1276;25322;-71
2024/04/10 01:16:41;;;;;;;4.60;2.00;;;;;;;16.19;50.61;96397.98;108482;1269;24352;-71
2024/04/10 01:19:12;;;;;;;4.00;1.80;;;;;;;16.14;50.71;96399.84;108514;1276;22564;-71
2024/04/10 01:21:42;;;;;;;3.90;2.00;;;;;;;16.11;50.84;96401.17;108502;1274;24490;-71
2024/04/10 01:24:13;;;;;;;4.70;2.20;;;;;;;16.09;50.93;96402.91;108498;1267;22541;-71
2024/04/10 01:26:43;;;;;;;5.40;1.90;;;;;;;16.03;51.07;96403.89;108521;1275;25285;-71
2024/04/10 01:29:17;;;;;;;5.00;1.80;;;;;;;15.98;51.19;96406.67;108516;1275;25246;-71
2024/04/10 01:31:47;;;;;;;4.00;2.20;;;;;;;15.94;51.24;96408.54;108436;1275;140447;-71
2024/04/10 01:34:18;;;;;;;4.90;2.10;;;;;;;15.93;51.36;96409.42;108463;1276;22532;-71
2024/04/10 01:36:48;;;;;;;7.30;2.40;;;;;;;15.93;51.51;96410.88;108513;1273;22532;-71
2024/04/10 01:39:19;;;;;;;6.00;2.20;;;;;;;15.90;51.47;96412.21;108495;1273;22530;-71
2024/04/10 01:41:49;;;;;;;5.20;2.30;;;;;;;15.91;51.59;96413.54;108471;1272;25270;-71
2024/04/10 01:44:20;;;;;;;2.70;1.90;;;;;;;15.91;51.61;96417.73;108366;1274;22536;-71
2024/04/10 01:46:52;;;;;;;4.50;2.30;;;;;;;15.88;51.63;96414.48;108517;1273;22560;-71
2024/04/10 01:49:22;;;;;;;3.50;2.10;;;;;;;15.87;51.60;96414.67;108546;1275;22539;-71
2024/04/10 01:51:53;;;;;;;6.70;2.30;;;;;;;15.85;51.71;96418.54;108497;1276;22563;-71
2024/04/10 01:54:24;;;;;;;7.40;2.20;;;;;;;15.85;51.71;96414.80;108498;1271;22527;-71
2024/04/10 01:56:54;;;;;;;5.30;1.90;;;;;;;15.85;51.90;96422.50;108485;1272;22999;-71
2024/04/10 01:59:25;;;;;;;4.90;2.00;;;;;;;15.80;51.91;96425.83;108503;1271;22637;-71
2024/04/10 02:01:56;;;;;;;3.30;1.80;;;;;;;15.75;52.13;96440.86;108477;1270;25368;-71
2024/04/10 02:04:29;;;;;;;7.10;2.30;;;;;;;15.81;52.27;96446.73;108443;1270;24232;-71
2024/04/10 02:07:00;;;;;;;3.90;1.70;;;;;;;15.97;52.35;96448.73;108550;1269;24224;-71
2024/04/10 02:09:30;;;;;;;6.10;2.10;;;;;;;16.11;52.52;96451.14;108528;1275;22603;-71
2024/04/10 02:12:03;;;;;;;4.30;2.20;;;;;;;16.21;52.35;96451.02;108513;1273;23570;-71
2024/04/10 02:14:36;;;;;;;3.90;1.70;;;;;;;16.25;52.33;96455.10;108438;1275;24270;-71
2024/04/10 02:17:08;;;;;;;3.80;2.40;;;;;;;16.24;52.36;96461.15;108511;1275;22535;-71
2024/04/10 02:19:39;;;;;;;4.50;2.20;;;;;;;16.12;52.51;96466.77;108517;1274;22539;-71
2024/04/10 02:22:11;;;;;;;4.50;1.90;;;;;;;15.95;52.92;96469.11;108474;1276;24226;-71
2024/04/10 02:24:42;;;;;;;3.00;2.00;;;;;;;15.76;53.28;96474.49;108527;1273;22575;-71
2024/04/10 02:27:12;;;;;;;6.60;2.30;;;;;;;15.61;53.56;96481.86;108503;1273;22550;-71
2024/04/10 02:29:43;;;;;;;8.30;2.40;;;;;;;15.52;53.66;96490.36;108482;1275;24183;-71
2024/04/10 02:32:13;;;;;;;5.90;2.00;;;;;;;15.40;53.82;96492.78;108514;1275;22532;-71
2024/04/10 02:34:44;;;;;;;6.60;2.10;;;;;;;15.18;54.16;96491.91;108502;1258;22538;-71
2024/04/10 02:37:15;;;;;;;4.70;1.90;;;;;;;15.04;54.84;96492.36;108497;1275;24138;-71
2024/04/10 02:39:45;;;;;;;5.30;2.30;;;;;;;15.10;55.07;96494.75;108524;1276;25249;-71
2024/04/10 02:42:16;;;;;;;7.20;2.30;;;;;;;15.10;55.62;96500.39;108520;1270;23615;-71
2024/04/10 02:44:51;;;;;;;5.80;2.50;;;;;;;15.17;56.31;96505.52;108490;1275;25307;-71
2024/04/10 02:47:21;;;;;;;8.30;3.50;;;;;;;15.29;57.01;96507.25;108509;1275;22541;-71
2024/04/10 02:49:52;;;;;;;11.60;3.60;;;;;;;15.43;57.43;96512.77;108481;1275;22546;-71
2024/04/10 02:52:32;;;;;;;11.70;4.10;;;;;;;15.52;57.81;96521.30;108461;1275;22532;-72
2024/04/10 02:55:06;;;;;;;11.20;4.60;;;;;;;15.63;59.34;96516.86;108483;1275;22570;-71
2024/04/10 02:57:37;;;;;;;11.60;4.40;;;;;;;15.76;59.76;96525.53;108494;1275;24226;-71
2024/04/10 03:00:11;;;;;;;11.30;4.20;;;;;;;15.82;60.01;96534.88;108505;1272;24392;-71
2024/04/10 03:02:41;;;;;;;10.70;4.10;;;;;;;15.85;60.72;96533.02;108539;1270;24032;-71
2024/04/10 03:05:12;;;;;;;12.50;3.90;;;;;;;15.88;61.23;96540.88;108473;1276;22562;-71
2024/04/10 03:07:43;;;;;;;14.00;5.10;;;;;;;15.85;60.82;96545.57;108470;1268;25360;-71
2024/04/10 03:10:14;;;;;;;11.80;5.10;;;;;;;15.84;61.06;96551.55;108503;1271;23620;-71
2024/04/10 03:12:45;;;;;;;16.70;4.90;;;;;;;15.82;61.06;96558.40;108491;1275;25381;-72
2024/04/10 03:15:16;;;;;;;13.00;4.70;;;;;;;15.79;61.48;96559.57;108493;1273;22521;-71
2024/04/10 03:17:47;;;;;;;11.90;4.40;;;;;;;15.71;61.71;96566.02;108466;1275;22529;-71
2024/04/10 03:20:18;;;;;;;9.70;3.80;;;;;;;15.66;61.82;96571.42;108446;1276;22524;-71
2024/04/10 03:22:48;;;;;;;10.70;4.30;;;;;;;15.53;62.17;96575.77;108452;1275;22537;-71
2024/04/10 03:25:19;;;;;;;15.90;5.40;;;;;;;15.51;62.96;96578.40;108492;1275;22546;-71
2024/04/10 03:27:50;;;;;;;14.60;4.70;;;;;;;15.48;63.68;96586.43;108495;1276;25445;-71
2024/04/10 03:30:20;;;;;;;16.80;5.80;;;;;;;15.51;65.09;96592.45;108496;1275;25249;-71
2024/04/10 03:32:51;;;;;;;11.80;4.50;;;;;;;15.48;64.70;96597.45;108429;1275;22548;-71
2024/04/10 03:35:22;;;;;;;18.60;6.30;;;;;;;15.44;65.27;96594.73;108442;1270;22597;-71
2024/04/10 03:37:53;;;;;;;13.80;5.30;;;;;;;15.44;65.40;96600.59;108459;1275;26433;-71
2024/04/10 03:40:23;;;;;;;13.30;5.50;;;;;;;15.40;65.99;96608.44;108497;1272;22609;-71
2024/04/10 03:42:55;;;;;;;18.00;6.10;;;;;;;15.41;66.45;96612.11;108460;1275;23396;-71
2024/04/10 03:45:25;;;;;;;14.20;4.80;;;;;;;15.42;67.12;96618.05;108580;1275;22526;-71
2024/04/10 03:47:56;;;;;;;17.50;6.00;;;;;;;15.43;67.54;96621.02;108537;1275;22527;-71
2024/04/10 03:50:26;;;;;;;16.10;6.10;;;;;;;15.43;67.60;96631.33;108573;1275;22567;-71
2024/04/10 03:52:59;;;;;;;13.40;5.40;;;;;;;15.45;67.49;96635.13;108528;1275;22543;-71
2024/04/10 03:55:30;;;;;;;13.60;6.20;;;;;;;15.44;68.00;96635.86;108553;1275;25367;-71
2024/04/10 03:58:00;;;;;;;19.90;6.30;;;;;;;15.45;69.16;96640.10;108597;1275;22547;-71
2024/04/10 04:00:31;;;;;;;15.40;6.30;;;;;;;15.44;69.54;96648.55;108593;1275;22658;-71
2024/04/10 04:03:01;;;;;;;15.20;5.50;;;;;;;15.43;70.65;96646.35;108489;1274;22845;-71
2024/04/10 04:05:32;;;;;;;14.80;6.20;;;;;;;15.41;71.48;96652.06;108562;1270;22645;-71
2024/04/10 04:08:03;;;;;;;15.80;6.50;;;;;;;15.38;72.24;96657.27;108557;1271;22542;-71
2024/04/10 04:10:33;;;;;;;14.60;6.60;;;;;;;15.37;72.46;96664.16;108553;1270;22527;-71
2024/04/10 04:13:05;;;;;;;17.20;6.60;;;;;;;15.35;73.29;96661.38;108577;1275;22562;-71
2024/04/10 04:15:36;;;;;;;19.10;7.20;;;;;;;15.33;73.92;96664.50;108548;1270;22525;-71
2024/04/10 04:18:07;;;;;;;17.70;6.50;;;;;;;15.32;73.70;96665.50;108524;1275;22638;-71
2024/04/10 04:20:38;;;;;;;15.00;6.00;;;;;;;15.29;73.83;96677.80;108529;1275;22531;-71
2024/04/10 04:23:08;;;;;;;13.50;6.30;;;;;;;15.30;73.52;96679.35;108534;1273;22574;-71
2024/04/10 04:25:41;;;;;;;17.30;7.20;;;;;;;15.29;73.54;96687.55;108537;1275;25309;-71
2024/04/10 04:28:12;;;;;;;14.30;5.90;;;;;;;15.31;73.18;96694.16;108578;1274;22620;-71
2024/04/10 04:30:49;;;;;;;15.10;7.30;;;;;;;15.36;73.07;96692.11;108550;1273;23071;-71
2024/04/10 04:33:21;;;;;;;16.10;6.70;;;;;;;15.35;73.53;96696.09;108551;1275;22639;-71
2024/04/10 04:35:52;;;;;;;14.00;6.10;;;;;;;15.30;74.09;96701.94;108558;1273;22536;-71
2024/04/10 04:38:22;;;;;;;15.00;6.40;;;;;;;15.27;73.96;96705.23;108567;1275;22531;-71
2024/04/10 04:40:53;;;;;;;22.60;6.50;;;;;;;15.29;74.27;96710.35;108563;1275;22545;-71
2024/04/10 04:43:24;;;;;;;14.40;5.90;;;;;;;15.28;74.40;96707.65;108503;1275;22556;-71
2024/04/10 04:45:55;;;;;;;10.70;5.80;;;;;;;15.25;74.98;96708.89;108525;1275;24213;-71
2024/04/10 04:48:25;;;;;;;11.00;4.60;;;;;;;15.21;75.30;96722.73;108562;1270;22546;-71
2024/04/10 04:50:56;;;;;;;12.60;4.80;;;;;;;15.18;74.90;96726.80;108567;1275;22584;-71
2024/04/10 04:53:29;;;;;;;9.60;4.40;;;;;;;15.20;74.77;96729.45;108487;1275;22526;-71
2024/04/10 04:56:00;;;;;;;12.10;4.50;;;;;;;15.19;74.70;96739.17;108539;1275;23558;-71
2024/04/10 04:58:31;;;;;;;14.90;5.10;;;;;;;15.15;74.42;96742.63;108549;1267;22529;-71
2024/04/10 05:01:01;;;;;;;13.10;3.80;;;;;;;15.17;74.18;96748.23;108560;1270;22675;-71
2024/04/10 05:06:20;;;;;;;10.40;4.70;;;;;;;15.16;73.88;96764.66;108570;1270;22532;-72
2024/04/10 05:08:52;;;;;;;14.10;4.30;;;;;;;15.18;73.78;96769.70;108574;1268;22530;-72
2024/04/10 05:11:23;;;;;;;11.40;4.40;;;;;;;15.18;73.72;96770.08;108579;1275;25294;-72
2024/04/10 05:13:53;;;;;;;10.80;4.70;;;;;;;15.14;73.68;96778.83;108484;1269;22704;-72
2024/04/10 05:16:26;;;;;;;14.60;5.20;;;;;;;15.11;73.64;96783.42;108529;1275;22603;-72
2024/04/10 05:18:58;;;;;;;17.20;5.30;;;;;;;15.11;73.80;96781.73;108571;1268;24421;-72
2024/04/10 05:21:28;;;;;;;10.90;4.00;;;;;;;15.12;73.90;96783.52;108551;1270;22697;-72
2024/04/10 05:23:59;;;;;;;11.80;4.10;;;;;;;15.15;73.72;96789.09;108507;1275;24398;-72
2024/04/10 05:26:30;;;;;;;11.30;4.30;;;;;;;15.21;73.69;96792.45;108532;1271;22529;-72
2024/04/10 05:29:00;;;;;;;14.00;4.60;;;;;;;15.23;73.75;96792.19;108519;1275;24469;-72
2024/04/10 05:31:31;;;;;;;15.00;5.00;;;;;;;15.23;73.68;96802.40;108611;1275;22559;-72
2024/04/10 05:34:02;;;;;;;11.40;4.80;;;;;;;15.24;73.65;96808.08;108519;1275;24272;-72
2024/04/10 05:36:35;;;;;;;9.20;5.00;;;;;;;15.21;73.95;96810.24;108514;1270;24701;-72
2024/04/10 05:39:06;;;;;;;13.40;4.40;;;;;;;15.21;73.89;96819.10;108527;1270;25335;-72
2024/04/10 05:41:37;;;;;;;12.90;4.50;;;;;;;15.23;73.84;96819.11;108563;1268;23337;-72
2024/04/10 05:44:07;;;;;;;12.00;5.50;;;;;;;15.26;73.83;96818.75;108525;1275;22608;-71
2024/04/10 05:46:38;;;;;;;13.20;5.90;;;;;;;15.26;73.61;96823.99;108516;1273;22532;-71
2024/04/10 05:49:10;;;;;;;9.90;5.50;;;;;;;15.25;73.76;96823.68;108575;1268;22538;-72
2024/04/10 05:51:41;;;;;;;16.50;5.50;;;;;;;15.26;73.62;96830.19;108583;1275;25294;-72
2024/04/10 05:54:12;;;;;;;9.20;4.80;;;;;;;15.27;73.63;96834.19;108481;1273;22535;-72
2024/04/10 05:56:43;;;;;;;15.30;6.10;;;;;;;15.28;73.58;96834.79;108599;1275;22670;-72
2024/04/10 05:59:13;;;;;;;13.50;6.30;;;;;;;15.30;73.71;96844.08;108514;1268;22558;-72
2024/04/10 06:01:44;;;;;;;12.60;5.90;;;;;;;15.28;73.61;96846.11;108511;1270;26872;-71
2024/04/10 06:04:16;;;;;;;10.40;5.80;;;;;;;15.23;73.64;96852.42;108499;1275;22526;-72
2024/04/10 06:06:46;;;;;;;17.50;6.50;;;;;;;15.16;74.29;96855.63;108587;1275;24388;-72
2024/04/10 06:09:17;;;;;;;13.30;6.70;;;;;;;15.12;74.28;96860.14;108539;1275;25423;-71
2024/04/10 06:11:48;;;;;;;13.10;6.40;;;;;;;15.08;74.44;96862.60;108545;1268;22564;-72
2024/04/10 06:14:18;;;;;;;12.70;6.00;;;;;;;15.07;74.40;96865.34;108537;1272;22584;-72
2024/04/10 06:16:51;;;;;;;11.60;6.50;;;;;;;15.08;74.46;96872.67;108534;1275;25375;-72
2024/04/10 06:19:22;;;;;;;14.50;7.60;;;;;;;15.13;74.60;96872.84;108548;1275;22546;-72
2024/04/10 06:21:53;;;;;;;15.00;7.80;;;;;;;15.12;74.65;96877.55;108592;1275;25302;-72
2024/04/10 06:24:25;;;;;;;12.80;7.00;;;;;;;15.15;74.54;96876.38;108533;1275;22593;-72
2024/04/10 06:26:55;;;;;;;10.50;5.60;;;;;;;15.14;74.84;96880.17;108561;1259;22618;-71
2024/04/10 06:29:26;;;;;;;10.70;5.60;;;;;;;15.17;74.83;96889.14;108560;1257;25531;-72
2024/04/10 06:31:57;;;;;;;16.10;6.40;;;;;;;15.21;74.84;96893.18;108559;1275;22529;-72
2024/04/10 06:34:27;;;;;;;16.80;7.50;;;;;;;15.23;74.69;96888.94;108580;1275;22523;-72
2024/04/10 06:36:58;;;;;;;10.50;5.70;;;;;;;15.16;74.76;96895.52;108582;1271;22529;-72
2024/04/10 06:39:28;;;;;;;14.00;5.90;;;;;;;15.17;74.79;96900.58;108569;1270;22553;-71
2024/04/10 06:41:59;;;;;;;11.70;6.40;;;;;;;15.21;75.14;96902.86;108568;1270;25256;-71
2024/04/10 06:44:30;;;;;;;11.40;5.70;;;;;;;15.21;75.19;96907.49;108490;1275;22612;-71
2024/04/10 06:47:01;;;;;;;14.40;6.40;;;;;;;15.22;74.97;96907.81;108544;1267;24292;-72
2024/04/10 06:49:31;;;;;;;22.40;7.30;;;;;;;15.23;75.11;96916.02;108596;1271;22560;-72
2024/04/10 06:52:02;;;;;;;11.40;6.10;;;;;;;15.28;75.16;96921.38;108579;1271;25144;-72
2024/04/10 06:54:33;;;;;;;12.60;5.50;;;;;;;15.29;74.91;96925.95;108547;1271;25063;-72
2024/04/10 06:57:04;;;;;;;14.30;8.00;;;;;;;15.22;75.20;96923.48;108504;1275;23231;-71
2024/04/10 06:59:36;;;;;;;12.30;7.10;;;;;;;15.11;75.67;96924.67;108551;1264;24272;-72
2024/04/10 07:02:06;;;;;;;15.30;6.90;;;;;;;15.02;75.90;96933.14;108552;1275;23311;-72
2024/04/10 07:04:37;;;;;;;11.80;6.80;;;;;;;14.96;76.62;96945.36;108565;1275;24289;-71
2024/04/10 07:07:08;;;;;;;14.10;8.40;;;;;;;14.92;77.70;96945.96;108546;1275;24509;-72
2024/04/10 07:09:38;;;;;;;13.60;8.70;;;;;;;14.81;77.88;96950.70;108563;1275;23488;-72
2024/04/10 07:12:09;;;;;;;14.20;10.50;;;;;;;14.74;78.18;96959.48;108554;1275;22529;-71
2024/04/10 07:14:41;;;;;;;17.50;9.10;;;;;;;14.70;78.17;96964.70;108481;1268;25354;-71
2024/04/10 07:17:14;;;;;;;12.40;9.00;;;;;;;14.68;78.58;96970.23;108570;1271;22935;-71
2024/04/10 07:19:45;;;;;;;12.60;8.30;;;;;;;14.58;79.07;96975.15;108542;1271;22538;-71
2024/04/10 07:22:15;;;;;;;11.60;7.50;;;;;;;14.44;80.33;96977.74;108529;1275;22579;-71
2024/04/10 07:24:46;;;;;;;12.80;7.80;;;;;;;14.29;80.69;96983.79;108504;1268;22532;-71
2024/04/10 07:27:17;;;;;;;8.90;5.90;;;;;;;14.25;81.07;96982.30;108584;1268;22533;-71
2024/04/10 07:29:47;;;;;;;6.60;4.80;;;;;;;14.16;81.47;96985.43;108615;1270;22654;-71
2024/04/10 07:32:18;;;;;;;6.70;3.50;;;;;;;14.04;82.57;96984.73;108522;1271;22526;-71
2024/04/10 07:34:50;;;;;;;6.00;4.10;;;;;;;13.76;83.85;96991.23;108567;1268;22528;-71
2024/04/10 07:37:21;;;;;;;8.50;3.50;;;;;;;13.62;84.07;96996.73;108559;1271;22534;-71
2024/04/10 07:39:51;;;;;;;2.90;2.70;;;;;;;13.54;84.81;96992.56;108523;1275;22523;-71
2024/04/10 07:42:22;;;;;;;3.10;2.80;;;;;;;13.43;84.90;96997.66;108521;1275;23737;-72
2024/04/10 07:44:55;;;;;;;2.90;2.60;;;;;;;13.37;85.49;97001.02;108540;1268;22554;-72
2024/04/10 07:47:25;;;;;;;2.00;1.80;;;;;;;13.26;86.44;97010.33;108585;1275;22528;-71
2024/04/10 07:49:56;;;;;;;4.80;1.80;;;;;;;13.17;86.83;97011.11;108565;1268;22522;-71
2024/04/10 07:52:27;;;;;;;1.60;1.50;;;;;;;13.07;87.51;97014.10;108509;1267;22465;-71
2024/04/10 07:55:00;;;;;;;3.20;1.60;;;;;;;12.94;88.26;97017.21;108528;1275;22688;-71
2024/04/10 07:57:31;;;;;;;2.40;2.20;;;;;;;12.84;88.83;97029.14;108547;1275;23224;-71
2024/04/10 08:00:02;;;;;;;2.70;2.20;;;;;;;12.78;89.15;97039.73;108573;1275;24314;-71
2024/04/10 08:02:34;;;;;;;3.10;2.40;;;;;;;12.79;88.73;97036.67;108549;1267;22549;-71
2024/04/10 08:05:09;;;;;;;4.90;2.60;;;;;;;12.78;89.26;97035.73;108477;1275;22541;-71
2024/04/10 08:07:41;;;;;;;2.30;2.10;;;;;;;12.78;88.83;97051.64;108607;1268;22560;-71
2024/04/10 08:10:12;;;;;;;2.60;2.30;;;;;;;12.88;88.56;97065.44;108658;1267;22540;-71
2024/04/10 08:12:43;;;;;;;5.40;4.80;;;;;;;12.96;88.24;97067.87;108657;1275;22586;-71
2024/04/10 08:15:14;;;;;;;7.50;5.50;;;;;;;12.97;87.62;97073.50;108679;1268;24374;-71
2024/04/10 08:17:45;;;;;;;8.10;5.50;;;;;;;12.95;87.45;97077.77;108686;1275;22522;-71
2024/04/10 08:20:16;;;;;;;7.20;5.20;;;;;;;12.96;87.26;97084.48;108708;1275;22565;-71
2024/04/10 08:22:47;;;;;;;10.10;5.70;;;;;;;12.97;87.32;97091.29;108552;1275;22648;-71
2024/04/10 08:25:18;;;;;;;7.90;6.00;;;;;;;12.87;86.91;97093.86;108548;1275;22552;-71
2024/04/10 08:27:49;;;;;;;7.10;5.70;;;;;;;12.76;86.99;97102.91;108537;1268;22558;-71
2024/04/10 08:30:19;;;;;;;5.50;4.80;;;;;;;12.74;87.06;97102.55;108569;1270;22505;-71
2024/04/10 08:32:50;;;;;;;6.50;4.90;;;;;;;12.68;87.15;97105.05;108496;1271;22527;-71
2024/04/10 08:35:21;;;;;;;9.10;4.90;;;;;;;12.59;87.46;97116.52;108565;1275;22578;-71
2024/04/10 08:37:53;;;;;;;7.40;5.80;;;;;;;12.65;87.92;97122.10;108604;1275;22530;-72
2024/04/10 08:40:27;;;;;;;6.30;5.20;;;;;;;12.64;87.47;97127.05;108575;1271;24213;-72
2024/04/10 08:43:00;;;;;;;6.90;5.20;;;;;;;12.63;87.89;97131.80;108510;1270;22522;-72
2024/04/10 08:45:34;;;;;;;6.90;5.30;;;;;;;12.58;88.03;97134.51;108549;1275;22523;-72
2024/04/10 08:48:06;;;;;;;10.90;7.40;;;;;;;12.59;87.84;97139.92;108558;1268;22654;-73
2024/04/10 08:50:38;;;;;;;9.40;6.70;;;;;;;12.42;87.37;97148.07;108567;1275;23818;-72
2024/04/10 08:53:10;;;;;;;7.60;5.80;;;;;;;12.30;87.70;97149.16;108553;1271;22529;-72
2024/04/10 08:55:42;;;;;;;8.40;6.50;;;;;;;12.18;87.91;97152.58;108536;1267;25425;-72
2024/04/10 08:58:13;;;;;;;10.20;5.80;;;;;;;12.02;88.42;97162.61;108561;1275;24443;-72
2024/04/10 09:00:45;;;;;;;5.70;4.90;;;;;;;11.89;88.75;97165.59;108556;1275;22540;-72
2024/04/10 09:03:16;;;;;;;6.40;5.10;;;;;;;11.79;89.16;97168.59;108536;1275;25529;-72
2024/04/10 09:05:47;;;;;;;7.80;5.10;;;;;;;11.69;89.44;97172.33;108566;1275;22757;-72
2024/04/10 09:08:17;;;;;;;6.90;5.20;;;;;;;11.56;89.75;97175.44;108576;1268;23699;-72
2024/04/10 09:10:56;;;;;;;6.10;4.90;;;;;;;11.45;90.23;97174.52;108595;1267;22536;-72
2024/04/10 09:13:28;;;;;;;7.30;5.20;;;;;;;11.34;90.63;97183.94;108506;1273;24304;-72
2024/04/10 09:16:00;;;;;;;6.70;5.30;;;;;;;11.29;91.05;97191.77;108546;1275;22659;-72
2024/04/10 09:18:31;;;;;;;5.90;5.30;;;;;;;11.27;91.18;97204.20;108585;1271;22525;-72
2024/04/10 09:21:11;;;;;;;7.10;5.10;;;;;;;11.26;91.13;97202.54;108512;1267;25274;-72
2024/04/10 09:23:44;;;;;;;6.80;5.20;;;;;;;11.18;91.12;97208.29;108524;1273;22577;-72
2024/04/10 09:26:20;;;;;;;6.60;4.70;;;;;;;11.11;91.13;97217.03;108570;1269;24512;-72
2024/04/10 09:29:02;;;;;;;6.30;4.50;;;;;;;11.13;91.22;97221.24;108579;1268;22535;-72
2024/04/10 09:31:33;;;;;;;6.80;4.90;;;;;;;11.14;91.32;97229.84;108521;1275;22526;-72
2024/04/10 09:34:06;;;;;;;6.70;4.70;;;;;;;11.16;91.25;97234.09;108503;1275;24359;-72
2024/04/10 09:36:38;;;;;;;7.70;4.80;;;;;;;11.15;91.34;97234.35;108558;1275;22703;-72
2024/04/10 09:39:09;;;;;;;5.40;4.20;;;;;;;11.17;91.88;97241.61;108561;1273;24218;-72
2024/04/10 09:41:44;;;;;;;4.90;4.00;;;;;;;11.07;92.10;97244.01;108564;1275;22522;-71
2024/04/10 09:44:22;;;;;;;6.60;4.00;;;;;;;11.02;92.15;97248.78;108505;1273;23777;-72
2024/04/10 09:46:57;;;;;;;5.70;3.80;;;;;;;11.03;92.08;97249.78;108584;1275;22520;-72
2024/04/10 09:49:39;;;;;;;7.60;5.20;;;;;;;10.98;92.03;97250.64;108575;1275;22538;-72
2024/04/10 09:52:14;;;;;;;6.30;5.20;;;;;;;10.94;91.94;97252.44;108515;1275;23502;-72
2024/04/10 09:54:46;;;;;;;7.10;5.50;;;;;;;10.85;91.83;97252.84;108552;1275;22547;-72
2024/04/10 09:57:19;;;;;;;6.60;5.30;;;;;;;10.82;91.77;97255.17;108559;1268;22662;-72
2024/04/10 09:59:51;;;;;;;7.50;6.30;;;;;;;10.82;91.86;97258.03;108589;1275;22620;-72
2024/04/10 10:02:22;;;;;;;8.60;6.70;;;;;;;10.74;92.35;97264.23;108530;1275;22536;-72
2024/04/10 10:04:52;;;;;;;7.50;5.50;;;;;;;10.69;92.36;97272.23;108569;1275;22654;-72
2024/04/10 10:07:24;;;;;;;8.10;6.30;;;;;;;10.66;92.52;97271.90;108534;1275;25431;-72
2024/04/10 10:10:07;;;;;;;8.30;6.30;;;;;;;10.59;92.29;97273.23;108552;1268;22559;-72
2024/04/10 10:12:37;;;;;;;7.50;5.60;;;;;;;10.56;92.15;97275.96;108597;1275;22536;-71
2024/04/10 10:15:13;;;;;;;7.10;5.60;;;;;;;10.60;92.24;97283.83;108571;1275;22560;-72
2024/04/10 10:17:54;;;;;;;14.00;7.40;;;;;;;10.64;92.03;97286.33;108511;1272;24213;-72
2024/04/10 10:20:25;;;;;;;7.60;6.00;;;;;;;10.60;91.67;97285.21;108574;1275;25370;-72
2024/04/10 10:23:06;;;;;;;7.10;5.90;;;;;;;10.61;91.50;97290.63;108523;1275;23065;-72
2024/04/10 10:25:37;;;;;;;9.20;7.60;;;;;;;10.62;91.38;97297.35;108559;1271;22546;-72
2024/04/10 10:28:09;;;;;;;11.20;8.00;;;;;;;10.58;91.55;97298.62;108577;1275;22547;-72
2024/04/10 10:30:40;;;;;;;10.10;7.10;;;;;;;10.57;91.71;97301.96;108550;1275;22637;-72
2024/04/10 10:33:10;;;;;;;14.90;9.10;;;;;;;10.54;91.58;97310.79;108549;1275;22549;-72
2024/04/10 10:35:41;;;;;;;10.20;7.10;;;;;;;10.54;91.73;97312.06;108549;1275;22535;-72
2024/04/10 10:38:12;;;;;;;13.60;7.70;;;;;;;10.61;91.48;97317.83;108573;1275;25901;-72
2024/04/10 10:40:42;;;;;;;11.50;8.10;;;;;;;10.65;91.26;97317.83;108535;1273;22525;-72
2024/04/10 10:43:15;;;;;;;13.00;9.70;;;;;;;10.68;91.06;97324.32;108518;1267;22530;-72
2024/04/10 10:45:50;;;;;;;12.30;8.40;;;;;;;10.75;90.98;97326.67;108553;1271;22533;-71
2024/04/10 10:48:20;;;;;;;11.60;7.80;;;;;;;10.71;90.67;97330.39;108553;1275;22542;-72
2024/04/10 10:50:57;;;;;;;11.00;8.50;;;;;;;10.74;90.66;97333.14;108524;1268;27769;-72
2024/04/10 10:53:28;;;;;;;13.50;9.30;;;;;;;10.70;90.17;97334.02;108568;1275;25256;-72
2024/04/10 10:55:59;;;;;;;11.90;9.40;;;;;;;10.62;90.04;97339.20;108579;1264;24230;-72
2024/04/10 10:58:30;;;;;;;13.40;9.70;;;;;;;10.61;90.11;97344.18;108592;1271;22525;-72
2024/04/10 11:01:06;;;;;;;15.10;10.40;;;;;;;10.58;90.00;97345.61;108560;1267;22637;-72
2024/04/10 11:03:37;;;;;;;11.60;8.90;;;;;;;10.56;89.99;97355.88;108499;1275;22644;-72
2024/04/10 11:06:11;;;;;;;11.30;9.40;;;;;;;10.52;90.09;97360.95;108556;1271;22622;-71
2024/04/10 11:08:42;;;;;;;12.60;9.00;;;;;;;10.51;89.82;97360.67;108551;1275;22685;-71
2024/04/10 11:11:17;;;;;;;14.10;9.20;;;;;;;10.51;89.71;97354.73;108585;1272;22519;-72
2024/04/10 11:13:51;;;;;;;11.60;8.50;;;;;;;10.53;89.72;97360.73;108491;1268;26334;-71
2024/04/10 11:16:32;;;;;;;12.40;8.90;;;;;;;10.53;89.61;97361.10;108550;1268;22529;-71
2024/04/10 11:19:05;;;;;;;16.30;10.30;;;;;;;10.52;89.44;97362.06;108579;1275;22533;-71
2024/04/10 11:21:35;;;;;;;15.20;10.90;;;;;;;10.56;89.46;97362.99;108554;1275;22641;-72
2024/04/10 11:24:07;;;;;;;11.60;8.10;;;;;;;10.61;89.26;97362.31;108585;1275;22575;-72
2024/04/10 11:26:37;;;;;;;10.40;8.30;;;;;;;10.61;88.88;97367.46;108379;1267;22543;-72
2024/04/10 11:29:08;;;;;;;10.90;7.60;;;;;;;10.63;88.79;97372.08;108494;1275;22544;-72
2024/04/10 11:31:38;;;;;;;12.50;8.00;;;;;;;10.67;88.63;97370.61;108425;1274;22933;-71
2024/04/10 11:34:10;;;;;;;10.30;7.90;;;;;;;10.69;88.26;97380.16;108365;1274;42682;-71
2024/04/10 11:36:41;;;;;;;13.60;7.60;;;;;;;10.74;88.25;97376.64;108632;1268;22537;-71
2024/04/10 11:39:15;;;;;;;11.20;7.90;;;;;;;10.77;88.15;97386.61;108597;1267;24423;-71
2024/04/10 11:41:45;;;;;;;11.80;7.50;;;;;;;10.75;87.90;97389.85;108667;1267;22551;-71
2024/04/10 11:44:16;;;;;;;12.10;7.90;;;;;;;10.76;87.82;97395.52;108560;1274;22540;-71